sensor_id;sensor_type;location;lat;lon;timestamp;P1;durP1;ratioP1;P2;durP2;ratioP2
8964;SDS011;4517;49.020;12.066;2022-12-10T00:00:18;36.53;;;21.07;;
8964;SDS011;4517;49.020;12.066;2022-12-10T00:02:43;29.17;;;19.33;;
8964;SDS011;4517;49.020;12.066;2022-12-10T00:05:09;37.13;;;20.53;;
8964;SDS011;4517;49.020;12.066;2022-12-10T00:07:34;33.93;;;20.47;;
8964;SDS011;4517;49.020;12.066;2022-12-10T00:10:00;38.53;;;20.63;;
8964;SDS011;4517;49.020;12.066;2022-12-10T00:12:25;37.83;;;21.10;;
8964;SDS011;4517;49.020;12.066;2022-12-10T00:14:51;30.83;;;19.13;;
8964;SDS011;4517;49.020;12.066;2022-12-10T00:17:17;34.10;;;19.77;;
8964;SDS011;4517;49.020;12.066;2022-12-10T00:19:42;36.40;;;20.90;;
8964;SDS011;4517;49.020;12.066;2022-12-10T00:22:08;37.10;;;21.17;;
8964;SDS011;4517;49.020;12.066;2022-12-10T00:24:33;35.57;;;20.63;;
8964;SDS011;4517;49.020;12.066;2022-12-10T00:26:59;38.23;;;21.27;;
8964;SDS011;4517;49.020;12.066;2022-12-10T00:29:24;33.40;;;20.23;;
8964;SDS011;4517;49.020;12.066;2022-12-10T00:31:50;35.77;;;19.47;;
8964;SDS011;4517;49.020;12.066;2022-12-10T00:34:15;34.37;;;20.70;;
8964;SDS011;4517;49.020;12.066;2022-12-10T00:36:42;36.57;;;21.37;;
8964;SDS011;4517;49.020;12.066;2022-12-10T00:39:11;35.70;;;20.43;;
8964;SDS011;4517;49.020;12.066;2022-12-10T00:41:39;34.10;;;19.83;;
8964;SDS011;4517;49.020;12.066;2022-12-10T00:44:05;39.07;;;21.07;;
8964;SDS011;4517;49.020;12.066;2022-12-10T00:46:31;31.60;;;19.10;;
8964;SDS011;4517;49.020;12.066;2022-12-10T00:48:57;31.20;;;19.90;;
8964;SDS011;4517;49.020;12.066;2022-12-10T00:51:24;35.97;;;21.47;;
8964;SDS011;4517;49.020;12.066;2022-12-10T00:53:51;34.20;;;19.97;;
8964;SDS011;4517;49.020;12.066;2022-12-10T00:56:20;32.57;;;21.00;;
8964;SDS011;4517;49.020;12.066;2022-12-10T00:58:48;35.97;;;21.20;;
8964;SDS011;4517;49.020;12.066;2022-12-10T01:01:36;39.17;;;21.93;;
8964;SDS011;4517;49.020;12.066;2022-12-10T01:04:08;37.93;;;19.80;;
8964;SDS011;4517;49.020;12.066;2022-12-10T01:06:40;40.20;;;21.90;;
8964;SDS011;4517;49.020;12.066;2022-12-10T01:09:09;34.70;;;19.97;;
8964;SDS011;4517;49.020;12.066;2022-12-10T01:11:36;41.33;;;21.50;;
8964;SDS011;4517;49.020;12.066;2022-12-10T01:14:04;33.60;;;19.67;;
8964;SDS011;4517;49.020;12.066;2022-12-10T01:16:31;41.40;;;21.40;;
8964;SDS011;4517;49.020;12.066;2022-12-10T01:18:57;33.37;;;20.23;;
8964;SDS011;4517;49.020;12.066;2022-12-10T01:21:23;38.13;;;21.20;;
8964;SDS011;4517;49.020;12.066;2022-12-10T01:23:51;37.87;;;22.20;;
8964;SDS011;4517;49.020;12.066;2022-12-10T01:26:18;33.63;;;19.80;;
8964;SDS011;4517;49.020;12.066;2022-12-10T01:28:49;36.77;;;20.13;;
8964;SDS011;4517;49.020;12.066;2022-12-10T01:31:22;35.07;;;20.03;;
8964;SDS011;4517;49.020;12.066;2022-12-10T01:33:53;37.40;;;19.80;;
8964;SDS011;4517;49.020;12.066;2022-12-10T01:36:20;38.20;;;21.73;;
8964;SDS011;4517;49.020;12.066;2022-12-10T01:38:47;33.27;;;20.83;;
8964;SDS011;4517;49.020;12.066;2022-12-10T01:41:15;42.30;;;22.30;;
8964;SDS011;4517;49.020;12.066;2022-12-10T01:46:29;38.43;;;20.67;;
8964;SDS011;4517;49.020;12.066;2022-12-10T01:48:57;37.00;;;21.17;;
8964;SDS011;4517;49.020;12.066;2022-12-10T01:51:25;38.80;;;23.20;;
8964;SDS011;4517;49.020;12.066;2022-12-10T01:53:52;43.77;;;23.77;;
8964;SDS011;4517;49.020;12.066;2022-12-10T01:56:19;43.63;;;22.27;;
8964;SDS011;4517;49.020;12.066;2022-12-10T01:58:45;35.80;;;20.97;;
8964;SDS011;4517;49.020;12.066;2022-12-10T02:01:19;39.10;;;22.50;;
8964;SDS011;4517;49.020;12.066;2022-12-10T02:07:07;37.53;;;21.27;;
8964;SDS011;4517;49.020;12.066;2022-12-10T02:12:46;40.87;;;22.57;;
8964;SDS011;4517;49.020;12.066;2022-12-10T02:15:20;41.40;;;22.90;;
8964;SDS011;4517;49.020;12.066;2022-12-10T02:17:57;43.53;;;23.20;;
8964;SDS011;4517;49.020;12.066;2022-12-10T02:20:30;39.73;;;22.83;;
8964;SDS011;4517;49.020;12.066;2022-12-10T02:23:04;43.00;;;23.93;;
8964;SDS011;4517;49.020;12.066;2022-12-10T02:31:04;40.67;;;22.77;;
8964;SDS011;4517;49.020;12.066;2022-12-10T02:33:32;52.83;;;24.03;;
8964;SDS011;4517;49.020;12.066;2022-12-10T02:36:00;40.70;;;22.80;;
8964;SDS011;4517;49.020;12.066;2022-12-10T02:38:27;39.00;;;24.57;;
8964;SDS011;4517;49.020;12.066;2022-12-10T02:40:57;46.60;;;22.90;;
8964;SDS011;4517;49.020;12.066;2022-12-10T02:43:32;43.50;;;23.60;;
8964;SDS011;4517;49.020;12.066;2022-12-10T02:45:58;42.13;;;23.53;;
8964;SDS011;4517;49.020;12.066;2022-12-10T02:48:27;42.27;;;22.77;;
8964;SDS011;4517;49.020;12.066;2022-12-10T02:50:53;40.77;;;24.43;;
8964;SDS011;4517;49.020;12.066;2022-12-10T02:53:19;43.57;;;23.03;;
8964;SDS011;4517;49.020;12.066;2022-12-10T02:56:28;43.07;;;23.60;;
8964;SDS011;4517;49.020;12.066;2022-12-10T02:58:56;45.97;;;23.27;;
8964;SDS011;4517;49.020;12.066;2022-12-10T03:07:25;51.97;;;25.10;;
8964;SDS011;4517;49.020;12.066;2022-12-10T03:10:31;46.83;;;24.50;;
8964;SDS011;4517;49.020;12.066;2022-12-10T03:13:07;47.37;;;23.60;;
8964;SDS011;4517;49.020;12.066;2022-12-10T03:15:35;48.00;;;24.40;;
8964;SDS011;4517;49.020;12.066;2022-12-10T03:18:05;50.87;;;24.93;;
8964;SDS011;4517;49.020;12.066;2022-12-10T03:20:33;46.93;;;23.97;;
8964;SDS011;4517;49.020;12.066;2022-12-10T03:23:02;48.67;;;25.77;;
8964;SDS011;4517;49.020;12.066;2022-12-10T03:25:30;45.80;;;23.90;;
8964;SDS011;4517;49.020;12.066;2022-12-10T03:27:57;50.63;;;23.70;;
8964;SDS011;4517;49.020;12.066;2022-12-10T03:30:25;44.57;;;25.47;;
8964;SDS011;4517;49.020;12.066;2022-12-10T03:32:51;53.37;;;27.27;;
8964;SDS011;4517;49.020;12.066;2022-12-10T03:35:17;48.70;;;25.97;;
8964;SDS011;4517;49.020;12.066;2022-12-10T03:37:46;48.27;;;25.70;;
8964;SDS011;4517;49.020;12.066;2022-12-10T03:40:14;44.40;;;24.87;;
8964;SDS011;4517;49.020;12.066;2022-12-10T03:42:42;46.00;;;24.03;;
8964;SDS011;4517;49.020;12.066;2022-12-10T03:45:08;50.43;;;26.10;;
8964;SDS011;4517;49.020;12.066;2022-12-10T03:47:34;54.80;;;26.90;;
8964;SDS011;4517;49.020;12.066;2022-12-10T03:50:00;45.60;;;24.53;;
8964;SDS011;4517;49.020;12.066;2022-12-10T03:52:25;52.23;;;25.63;;
8964;SDS011;4517;49.020;12.066;2022-12-10T03:54:51;53.93;;;28.37;;
8964;SDS011;4517;49.020;12.066;2022-12-10T03:57:16;52.23;;;26.67;;
8964;SDS011;4517;49.020;12.066;2022-12-10T03:59:42;54.53;;;27.20;;
8964;SDS011;4517;49.020;12.066;2022-12-10T04:02:07;52.10;;;26.87;;
8964;SDS011;4517;49.020;12.066;2022-12-10T04:04:33;49.53;;;25.83;;
8964;SDS011;4517;49.020;12.066;2022-12-10T04:06:59;61.27;;;27.83;;
8964;SDS011;4517;49.020;12.066;2022-12-10T04:09:24;52.37;;;25.97;;
8964;SDS011;4517;49.020;12.066;2022-12-10T04:11:50;55.47;;;27.50;;
8964;SDS011;4517;49.020;12.066;2022-12-10T04:14:19;59.10;;;29.23;;
8964;SDS011;4517;49.020;12.066;2022-12-10T04:17:03;53.17;;;26.03;;
8964;SDS011;4517;49.020;12.066;2022-12-10T04:19:29;54.73;;;27.20;;
8964;SDS011;4517;49.020;12.066;2022-12-10T04:21:54;49.73;;;26.53;;
8964;SDS011;4517;49.020;12.066;2022-12-10T04:24:38;47.77;;;24.33;;
8964;SDS011;4517;49.020;12.066;2022-12-10T04:27:24;54.73;;;26.30;;
8964;SDS011;4517;49.020;12.066;2022-12-10T04:29:53;61.20;;;27.93;;
8964;SDS011;4517;49.020;12.066;2022-12-10T04:32:19;48.40;;;26.73;;
8964;SDS011;4517;49.020;12.066;2022-12-10T04:34:46;62.37;;;29.70;;
8964;SDS011;4517;49.020;12.066;2022-12-10T04:37:11;56.43;;;28.50;;
8964;SDS011;4517;49.020;12.066;2022-12-10T04:39:37;58.20;;;26.87;;
8964;SDS011;4517;49.020;12.066;2022-12-10T04:42:03;54.43;;;26.37;;
8964;SDS011;4517;49.020;12.066;2022-12-10T04:44:30;54.13;;;27.00;;
8964;SDS011;4517;49.020;12.066;2022-12-10T04:46:56;62.93;;;28.83;;
8964;SDS011;4517;49.020;12.066;2022-12-10T04:49:22;57.40;;;27.77;;
8964;SDS011;4517;49.020;12.066;2022-12-10T04:51:47;53.27;;;27.13;;
8964;SDS011;4517;49.020;12.066;2022-12-10T04:54:14;59.93;;;26.30;;
8964;SDS011;4517;49.020;12.066;2022-12-10T04:56:40;53.63;;;27.10;;
8964;SDS011;4517;49.020;12.066;2022-12-10T04:59:06;59.87;;;30.37;;
8964;SDS011;4517;49.020;12.066;2022-12-10T05:01:33;52.03;;;25.77;;
8964;SDS011;4517;49.020;12.066;2022-12-10T05:04:00;57.63;;;27.20;;
8964;SDS011;4517;49.020;12.066;2022-12-10T05:06:27;59.30;;;28.27;;
8964;SDS011;4517;49.020;12.066;2022-12-10T05:08:53;49.23;;;26.60;;
8964;SDS011;4517;49.020;12.066;2022-12-10T05:11:20;58.43;;;28.33;;
8964;SDS011;4517;49.020;12.066;2022-12-10T05:13:46;58.27;;;28.80;;
8964;SDS011;4517;49.020;12.066;2022-12-10T05:16:14;53.63;;;28.13;;
8964;SDS011;4517;49.020;12.066;2022-12-10T05:18:40;64.33;;;29.47;;
8964;SDS011;4517;49.020;12.066;2022-12-10T05:21:07;56.03;;;27.93;;
8964;SDS011;4517;49.020;12.066;2022-12-10T05:23:36;56.90;;;26.63;;
8964;SDS011;4517;49.020;12.066;2022-12-10T05:28:48;57.97;;;26.90;;
8964;SDS011;4517;49.020;12.066;2022-12-10T05:31:34;64.13;;;28.23;;
8964;SDS011;4517;49.020;12.066;2022-12-10T05:33:59;52.83;;;27.07;;
8964;SDS011;4517;49.020;12.066;2022-12-10T05:36:26;57.07;;;28.07;;
8964;SDS011;4517;49.020;12.066;2022-12-10T05:38:53;57.50;;;28.70;;
8964;SDS011;4517;49.020;12.066;2022-12-10T05:41:21;52.60;;;28.10;;
8964;SDS011;4517;49.020;12.066;2022-12-10T05:43:49;60.50;;;29.60;;
8964;SDS011;4517;49.020;12.066;2022-12-10T05:46:15;63.63;;;28.70;;
8964;SDS011;4517;49.020;12.066;2022-12-10T05:48:43;56.10;;;27.37;;
8964;SDS011;4517;49.020;12.066;2022-12-10T05:51:13;54.97;;;27.87;;
8964;SDS011;4517;49.020;12.066;2022-12-10T05:53:40;59.40;;;27.20;;
8964;SDS011;4517;49.020;12.066;2022-12-10T05:56:07;59.87;;;27.93;;
8964;SDS011;4517;49.020;12.066;2022-12-10T05:58:35;55.67;;;27.63;;
8964;SDS011;4517;49.020;12.066;2022-12-10T06:01:05;61.00;;;28.30;;
8964;SDS011;4517;49.020;12.066;2022-12-10T06:03:36;63.60;;;31.33;;
8964;SDS011;4517;49.020;12.066;2022-12-10T06:06:02;60.63;;;27.73;;
8964;SDS011;4517;49.020;12.066;2022-12-10T06:08:28;67.97;;;30.30;;
8964;SDS011;4517;49.020;12.066;2022-12-10T06:10:54;58.07;;;27.70;;
8964;SDS011;4517;49.020;12.066;2022-12-10T06:13:21;65.93;;;29.30;;
8964;SDS011;4517;49.020;12.066;2022-12-10T06:15:46;70.10;;;29.33;;
8964;SDS011;4517;49.020;12.066;2022-12-10T06:18:12;56.10;;;28.20;;
8964;SDS011;4517;49.020;12.066;2022-12-10T06:20:38;64.77;;;29.63;;
8964;SDS011;4517;49.020;12.066;2022-12-10T06:23:04;62.63;;;29.00;;
8964;SDS011;4517;49.020;12.066;2022-12-10T06:25:30;61.77;;;30.87;;
8964;SDS011;4517;49.020;12.066;2022-12-10T06:27:55;64.50;;;29.90;;
8964;SDS011;4517;49.020;12.066;2022-12-10T06:30:21;61.27;;;28.57;;
8964;SDS011;4517;49.020;12.066;2022-12-10T06:32:46;64.10;;;29.93;;
8964;SDS011;4517;49.020;12.066;2022-12-10T06:35:12;66.57;;;29.90;;
8964;SDS011;4517;49.020;12.066;2022-12-10T06:37:37;61.27;;;31.03;;
8964;SDS011;4517;49.020;12.066;2022-12-10T06:40:03;68.40;;;29.50;;
8964;SDS011;4517;49.020;12.066;2022-12-10T06:42:29;64.10;;;30.83;;
8964;SDS011;4517;49.020;12.066;2022-12-10T06:44:55;74.63;;;30.27;;
8964;SDS011;4517;49.020;12.066;2022-12-10T06:47:21;72.77;;;33.27;;
8964;SDS011;4517;49.020;12.066;2022-12-10T06:49:46;59.57;;;29.27;;
8964;SDS011;4517;49.020;12.066;2022-12-10T06:52:12;63.87;;;29.73;;
8964;SDS011;4517;49.020;12.066;2022-12-10T06:54:38;70.30;;;29.40;;
8964;SDS011;4517;49.020;12.066;2022-12-10T06:57:03;69.27;;;30.57;;
8964;SDS011;4517;49.020;12.066;2022-12-10T06:59:29;59.90;;;30.00;;
8964;SDS011;4517;49.020;12.066;2022-12-10T07:01:54;62.87;;;30.03;;
8964;SDS011;4517;49.020;12.066;2022-12-10T07:04:20;65.20;;;31.13;;
8964;SDS011;4517;49.020;12.066;2022-12-10T07:06:46;79.83;;;32.27;;
8964;SDS011;4517;49.020;12.066;2022-12-10T07:09:11;67.33;;;32.60;;
8964;SDS011;4517;49.020;12.066;2022-12-10T07:11:37;69.83;;;29.93;;
8964;SDS011;4517;49.020;12.066;2022-12-10T07:14:03;77.60;;;32.20;;
8964;SDS011;4517;49.020;12.066;2022-12-10T07:16:29;67.70;;;30.47;;
8964;SDS011;4517;49.020;12.066;2022-12-10T07:18:57;61.80;;;29.07;;
8964;SDS011;4517;49.020;12.066;2022-12-10T07:21:25;65.90;;;31.87;;
8964;SDS011;4517;49.020;12.066;2022-12-10T07:23:54;65.30;;;29.50;;
8964;SDS011;4517;49.020;12.066;2022-12-10T07:26:23;69.33;;;30.80;;
8964;SDS011;4517;49.020;12.066;2022-12-10T07:28:49;65.40;;;30.70;;
8964;SDS011;4517;49.020;12.066;2022-12-10T07:31:15;71.30;;;30.70;;
8964;SDS011;4517;49.020;12.066;2022-12-10T07:33:40;73.60;;;30.23;;
8964;SDS011;4517;49.020;12.066;2022-12-10T07:36:07;57.13;;;29.87;;
8964;SDS011;4517;49.020;12.066;2022-12-10T07:38:34;63.47;;;28.40;;
8964;SDS011;4517;49.020;12.066;2022-12-10T07:41:03;70.33;;;31.33;;
8964;SDS011;4517;49.020;12.066;2022-12-10T07:43:32;64.10;;;28.97;;
8964;SDS011;4517;49.020;12.066;2022-12-10T07:46:05;63.40;;;29.63;;
8964;SDS011;4517;49.020;12.066;2022-12-10T07:48:37;56.87;;;27.30;;
8964;SDS011;4517;49.020;12.066;2022-12-10T07:51:03;65.87;;;29.07;;
8964;SDS011;4517;49.020;12.066;2022-12-10T07:53:30;75.47;;;32.07;;
8964;SDS011;4517;49.020;12.066;2022-12-10T07:55:56;69.13;;;30.13;;
8964;SDS011;4517;49.020;12.066;2022-12-10T07:58:22;69.43;;;31.27;;
8964;SDS011;4517;49.020;12.066;2022-12-10T08:00:47;73.57;;;32.40;;
8964;SDS011;4517;49.020;12.066;2022-12-10T08:03:13;65.00;;;29.37;;
8964;SDS011;4517;49.020;12.066;2022-12-10T08:05:38;69.43;;;30.27;;
8964;SDS011;4517;49.020;12.066;2022-12-10T08:08:04;64.47;;;29.50;;
8964;SDS011;4517;49.020;12.066;2022-12-10T08:10:32;64.83;;;30.03;;
8964;SDS011;4517;49.020;12.066;2022-12-10T08:13:02;58.63;;;30.57;;
8964;SDS011;4517;49.020;12.066;2022-12-10T08:15:27;63.20;;;29.47;;
8964;SDS011;4517;49.020;12.066;2022-12-10T08:17:53;65.20;;;28.47;;
8964;SDS011;4517;49.020;12.066;2022-12-10T08:20:20;69.33;;;31.50;;
8964;SDS011;4517;49.020;12.066;2022-12-10T08:22:46;61.47;;;31.33;;
8964;SDS011;4517;49.020;12.066;2022-12-10T08:25:11;65.47;;;30.13;;
8964;SDS011;4517;49.020;12.066;2022-12-10T08:27:37;61.33;;;30.10;;
8964;SDS011;4517;49.020;12.066;2022-12-10T08:30:02;63.90;;;29.57;;
8964;SDS011;4517;49.020;12.066;2022-12-10T08:32:29;55.10;;;27.60;;
8964;SDS011;4517;49.020;12.066;2022-12-10T08:34:54;70.37;;;31.10;;
8964;SDS011;4517;49.020;12.066;2022-12-10T08:37:20;67.37;;;27.57;;
8964;SDS011;4517;49.020;12.066;2022-12-10T08:39:46;57.00;;;27.60;;
8964;SDS011;4517;49.020;12.066;2022-12-10T08:42:11;61.03;;;29.83;;
8964;SDS011;4517;49.020;12.066;2022-12-10T08:44:37;63.97;;;29.27;;
8964;SDS011;4517;49.020;12.066;2022-12-10T08:47:03;58.53;;;28.47;;
8964;SDS011;4517;49.020;12.066;2022-12-10T08:49:28;58.20;;;27.90;;
8964;SDS011;4517;49.020;12.066;2022-12-10T08:51:54;54.00;;;25.60;;
8964;SDS011;4517;49.020;12.066;2022-12-10T08:54:19;55.97;;;28.40;;
8964;SDS011;4517;49.020;12.066;2022-12-10T08:56:45;61.87;;;31.30;;
8964;SDS011;4517;49.020;12.066;2022-12-10T08:59:11;61.47;;;31.70;;
8964;SDS011;4517;49.020;12.066;2022-12-10T09:01:36;54.37;;;28.53;;
8964;SDS011;4517;49.020;12.066;2022-12-10T09:04:02;65.33;;;30.20;;
8964;SDS011;4517;49.020;12.066;2022-12-10T09:06:28;61.80;;;29.23;;
8964;SDS011;4517;49.020;12.066;2022-12-10T09:08:54;59.97;;;29.37;;
8964;SDS011;4517;49.020;12.066;2022-12-10T09:11:22;56.07;;;26.73;;
8964;SDS011;4517;49.020;12.066;2022-12-10T09:13:51;57.43;;;26.50;;
8964;SDS011;4517;49.020;12.066;2022-12-10T09:16:16;54.30;;;26.50;;
8964;SDS011;4517;49.020;12.066;2022-12-10T09:18:42;61.83;;;27.57;;
8964;SDS011;4517;49.020;12.066;2022-12-10T09:21:09;51.27;;;26.43;;
8964;SDS011;4517;49.020;12.066;2022-12-10T09:23:37;58.23;;;27.73;;
8964;SDS011;4517;49.020;12.066;2022-12-10T09:26:13;60.73;;;27.33;;
8964;SDS011;4517;49.020;12.066;2022-12-10T09:28:40;65.30;;;29.33;;
8964;SDS011;4517;49.020;12.066;2022-12-10T09:31:07;54.83;;;25.43;;
8964;SDS011;4517;49.020;12.066;2022-12-10T09:33:33;57.50;;;26.10;;
8964;SDS011;4517;49.020;12.066;2022-12-10T09:35:59;55.00;;;29.00;;
8964;SDS011;4517;49.020;12.066;2022-12-10T09:38:24;62.40;;;28.17;;
8964;SDS011;4517;49.020;12.066;2022-12-10T09:40:51;49.23;;;26.53;;
8964;SDS011;4517;49.020;12.066;2022-12-10T09:46:13;55.30;;;27.00;;
8964;SDS011;4517;49.020;12.066;2022-12-10T09:51:56;48.10;;;26.30;;
8964;SDS011;4517;49.020;12.066;2022-12-10T09:54:30;54.70;;;27.00;;
8964;SDS011;4517;49.020;12.066;2022-12-10T09:56:58;56.50;;;27.67;;
8964;SDS011;4517;49.020;12.066;2022-12-10T10:04:49;51.27;;;24.97;;
8964;SDS011;4517;49.020;12.066;2022-12-10T10:07:26;56.87;;;26.83;;
8964;SDS011;4517;49.020;12.066;2022-12-10T10:09:58;53.17;;;24.20;;
8964;SDS011;4517;49.020;12.066;2022-12-10T10:12:28;54.47;;;26.00;;
8964;SDS011;4517;49.020;12.066;2022-12-10T10:14:56;57.90;;;26.50;;
8964;SDS011;4517;49.020;12.066;2022-12-10T10:17:32;48.80;;;25.50;;
8964;SDS011;4517;49.020;12.066;2022-12-10T10:20:01;48.17;;;24.50;;
8964;SDS011;4517;49.020;12.066;2022-12-10T10:22:27;49.23;;;25.30;;
8964;SDS011;4517;49.020;12.066;2022-12-10T10:24:53;53.53;;;24.90;;
8964;SDS011;4517;49.020;12.066;2022-12-10T10:27:23;55.73;;;26.53;;
8964;SDS011;4517;49.020;12.066;2022-12-10T10:29:53;49.33;;;29.47;;
8964;SDS011;4517;49.020;12.066;2022-12-10T10:32:22;56.73;;;25.00;;
8964;SDS011;4517;49.020;12.066;2022-12-10T10:34:54;50.93;;;27.43;;
8964;SDS011;4517;49.020;12.066;2022-12-10T10:37:23;50.23;;;24.80;;
8964;SDS011;4517;49.020;12.066;2022-12-10T10:39:55;48.00;;;24.90;;
8964;SDS011;4517;49.020;12.066;2022-12-10T10:42:34;48.90;;;26.00;;
8964;SDS011;4517;49.020;12.066;2022-12-10T10:45:06;50.43;;;25.47;;
8964;SDS011;4517;49.020;12.066;2022-12-10T10:48:05;54.13;;;27.37;;
8964;SDS011;4517;49.020;12.066;2022-12-10T10:50:39;51.17;;;26.67;;
8964;SDS011;4517;49.020;12.066;2022-12-10T10:53:27;50.20;;;26.27;;
8964;SDS011;4517;49.020;12.066;2022-12-10T10:55:57;50.50;;;26.43;;
8964;SDS011;4517;49.020;12.066;2022-12-10T10:58:29;50.40;;;25.50;;
8964;SDS011;4517;49.020;12.066;2022-12-10T11:00:59;54.20;;;27.07;;
8964;SDS011;4517;49.020;12.066;2022-12-10T11:03:28;53.73;;;28.10;;
8964;SDS011;4517;49.020;12.066;2022-12-10T11:05:55;51.00;;;26.10;;
8964;SDS011;4517;49.020;12.066;2022-12-10T11:08:23;52.67;;;28.30;;
8964;SDS011;4517;49.020;12.066;2022-12-10T11:10:51;50.90;;;26.77;;
8964;SDS011;4517;49.020;12.066;2022-12-10T11:13:25;55.50;;;26.23;;
8964;SDS011;4517;49.020;12.066;2022-12-10T11:15:57;50.03;;;26.80;;
8964;SDS011;4517;49.020;12.066;2022-12-10T11:21:00;57.23;;;28.63;;
8964;SDS011;4517;49.020;12.066;2022-12-10T11:23:45;52.83;;;27.77;;
8964;SDS011;4517;49.020;12.066;2022-12-10T11:37:38;49.13;;;25.03;;
8964;SDS011;4517;49.020;12.066;2022-12-10T11:40:41;54.33;;;27.80;;
8964;SDS011;4517;49.020;12.066;2022-12-10T11:43:27;54.27;;;28.03;;
8964;SDS011;4517;49.020;12.066;2022-12-10T11:48:50;47.30;;;25.73;;
8964;SDS011;4517;49.020;12.066;2022-12-10T11:51:34;53.00;;;25.83;;
8964;SDS011;4517;49.020;12.066;2022-12-10T11:54:32;49.07;;;27.07;;
8964;SDS011;4517;49.020;12.066;2022-12-10T11:59:58;46.80;;;24.90;;
8964;SDS011;4517;49.020;12.066;2022-12-10T12:05:32;57.80;;;26.47;;
8964;SDS011;4517;49.020;12.066;2022-12-10T12:08:13;54.73;;;26.03;;
8964;SDS011;4517;49.020;12.066;2022-12-10T12:10:46;50.13;;;26.87;;
8964;SDS011;4517;49.020;12.066;2022-12-10T12:13:27;46.93;;;25.97;;
8964;SDS011;4517;49.020;12.066;2022-12-10T12:18:51;51.43;;;28.03;;
8964;SDS011;4517;49.020;12.066;2022-12-10T12:21:22;48.40;;;25.57;;
8964;SDS011;4517;49.020;12.066;2022-12-10T12:26:50;46.67;;;25.47;;
8964;SDS011;4517;49.020;12.066;2022-12-10T12:29:35;48.97;;;24.53;;
8964;SDS011;4517;49.020;12.066;2022-12-10T12:32:25;47.33;;;25.70;;
8964;SDS011;4517;49.020;12.066;2022-12-10T12:37:58;46.87;;;26.80;;
8964;SDS011;4517;49.020;12.066;2022-12-10T12:40:30;50.60;;;25.57;;
8964;SDS011;4517;49.020;12.066;2022-12-10T12:43:02;46.07;;;25.00;;
8964;SDS011;4517;49.020;12.066;2022-12-10T12:45:42;46.83;;;25.23;;
8964;SDS011;4517;49.020;12.066;2022-12-10T12:48:16;45.90;;;24.47;;
8964;SDS011;4517;49.020;12.066;2022-12-10T12:51:03;47.27;;;27.23;;
8964;SDS011;4517;49.020;12.066;2022-12-10T12:53:33;43.43;;;25.07;;
8964;SDS011;4517;49.020;12.066;2022-12-10T12:56:07;51.63;;;25.50;;
8964;SDS011;4517;49.020;12.066;2022-12-10T12:58:48;45.97;;;23.80;;
8964;SDS011;4517;49.020;12.066;2022-12-10T13:01:49;47.23;;;24.50;;
8964;SDS011;4517;49.020;12.066;2022-12-10T13:04:23;54.03;;;22.93;;
8964;SDS011;4517;49.020;12.066;2022-12-10T13:12:32;41.63;;;22.40;;
8964;SDS011;4517;49.020;12.066;2022-12-10T13:15:16;52.07;;;24.23;;
8964;SDS011;4517;49.020;12.066;2022-12-10T13:20:46;38.93;;;22.13;;
8964;SDS011;4517;49.020;12.066;2022-12-10T13:41:41;28.07;;;18.20;;
8964;SDS011;4517;49.020;12.066;2022-12-10T13:44:46;37.53;;;20.40;;
8964;SDS011;4517;49.020;12.066;2022-12-10T13:47:26;36.70;;;21.23;;
8964;SDS011;4517;49.020;12.066;2022-12-10T14:06:24;39.27;;;23.17;;
8964;SDS011;4517;49.020;12.066;2022-12-10T14:08:55;37.30;;;22.27;;
8964;SDS011;4517;49.020;12.066;2022-12-10T14:11:29;41.47;;;22.30;;
8964;SDS011;4517;49.020;12.066;2022-12-10T14:14:00;44.70;;;24.33;;
8964;SDS011;4517;49.020;12.066;2022-12-10T14:16:28;44.90;;;23.87;;
8964;SDS011;4517;49.020;12.066;2022-12-10T14:18:57;43.13;;;23.20;;
8964;SDS011;4517;49.020;12.066;2022-12-10T14:21:32;37.77;;;21.80;;
8964;SDS011;4517;49.020;12.066;2022-12-10T14:24:02;39.13;;;22.87;;
8964;SDS011;4517;49.020;12.066;2022-12-10T14:26:30;34.87;;;21.10;;
8964;SDS011;4517;49.020;12.066;2022-12-10T14:29:01;40.63;;;21.90;;
8964;SDS011;4517;49.020;12.066;2022-12-10T14:31:44;43.67;;;21.63;;
8964;SDS011;4517;49.020;12.066;2022-12-10T14:34:13;35.07;;;20.77;;
8964;SDS011;4517;49.020;12.066;2022-12-10T14:36:47;41.50;;;21.87;;
8964;SDS011;4517;49.020;12.066;2022-12-10T14:39:16;43.43;;;23.00;;
8964;SDS011;4517;49.020;12.066;2022-12-10T14:41:50;33.50;;;21.20;;
8964;SDS011;4517;49.020;12.066;2022-12-10T14:44:17;37.60;;;21.50;;
8964;SDS011;4517;49.020;12.066;2022-12-10T14:46:44;37.67;;;22.47;;
8964;SDS011;4517;49.020;12.066;2022-12-10T14:49:15;35.93;;;21.90;;
8964;SDS011;4517;49.020;12.066;2022-12-10T14:51:46;38.43;;;22.70;;
8964;SDS011;4517;49.020;12.066;2022-12-10T14:56:56;39.80;;;21.97;;
8964;SDS011;4517;49.020;12.066;2022-12-10T14:59:51;43.57;;;22.77;;
8964;SDS011;4517;49.020;12.066;2022-12-10T15:02:26;45.97;;;26.47;;
8964;SDS011;4517;49.020;12.066;2022-12-10T15:04:55;34.27;;;23.80;;
8964;SDS011;4517;49.020;12.066;2022-12-10T15:07:22;37.63;;;23.30;;
8964;SDS011;4517;49.020;12.066;2022-12-10T15:09:51;45.40;;;23.43;;
8964;SDS011;4517;49.020;12.066;2022-12-10T15:12:27;47.50;;;23.23;;
8964;SDS011;4517;49.020;12.066;2022-12-10T15:14:56;43.90;;;23.60;;
8964;SDS011;4517;49.020;12.066;2022-12-10T15:17:40;44.53;;;23.30;;
8964;SDS011;4517;49.020;12.066;2022-12-10T15:20:18;41.07;;;24.10;;
8964;SDS011;4517;49.020;12.066;2022-12-10T15:22:44;50.20;;;25.93;;
8964;SDS011;4517;49.020;12.066;2022-12-10T15:25:13;50.83;;;23.80;;
8964;SDS011;4517;49.020;12.066;2022-12-10T15:27:52;40.00;;;23.37;;
8964;SDS011;4517;49.020;12.066;2022-12-10T15:30:23;41.93;;;22.80;;
8964;SDS011;4517;49.020;12.066;2022-12-10T15:32:56;41.87;;;23.50;;
8964;SDS011;4517;49.020;12.066;2022-12-10T15:35:22;49.37;;;24.00;;
8964;SDS011;4517;49.020;12.066;2022-12-10T15:37:47;42.47;;;23.40;;
8964;SDS011;4517;49.020;12.066;2022-12-10T15:40:36;45.80;;;23.50;;
8964;SDS011;4517;49.020;12.066;2022-12-10T15:43:12;46.13;;;24.03;;
8964;SDS011;4517;49.020;12.066;2022-12-10T15:45:50;46.33;;;23.17;;
8964;SDS011;4517;49.020;12.066;2022-12-10T15:48:15;41.63;;;22.73;;
8964;SDS011;4517;49.020;12.066;2022-12-10T15:50:42;45.20;;;23.47;;
8964;SDS011;4517;49.020;12.066;2022-12-10T15:53:13;37.87;;;23.40;;
8964;SDS011;4517;49.020;12.066;2022-12-10T15:55:44;36.03;;;20.43;;
8964;SDS011;4517;49.020;12.066;2022-12-10T15:58:10;48.60;;;23.00;;
8964;SDS011;4517;49.020;12.066;2022-12-10T16:00:37;42.07;;;22.77;;
8964;SDS011;4517;49.020;12.066;2022-12-10T16:03:08;37.50;;;21.80;;
8964;SDS011;4517;49.020;12.066;2022-12-10T16:05:36;37.63;;;21.30;;
8964;SDS011;4517;49.020;12.066;2022-12-10T16:10:42;44.70;;;22.97;;
8964;SDS011;4517;49.020;12.066;2022-12-10T16:13:14;37.53;;;20.83;;
8964;SDS011;4517;49.020;12.066;2022-12-10T16:15:58;36.73;;;20.37;;
8964;SDS011;4517;49.020;12.066;2022-12-10T16:18:29;36.87;;;21.33;;
8964;SDS011;4517;49.020;12.066;2022-12-10T16:20:54;38.03;;;21.70;;
8964;SDS011;4517;49.020;12.066;2022-12-10T16:23:20;36.23;;;20.90;;
8964;SDS011;4517;49.020;12.066;2022-12-10T16:25:45;40.60;;;23.07;;
8964;SDS011;4517;49.020;12.066;2022-12-10T16:28:13;41.20;;;22.40;;
8964;SDS011;4517;49.020;12.066;2022-12-10T16:30:48;41.30;;;21.33;;
8964;SDS011;4517;49.020;12.066;2022-12-10T16:33:15;38.73;;;21.07;;
8964;SDS011;4517;49.020;12.066;2022-12-10T16:35:43;42.60;;;24.83;;
8964;SDS011;4517;49.020;12.066;2022-12-10T16:38:09;42.70;;;22.17;;
8964;SDS011;4517;49.020;12.066;2022-12-10T16:40:35;46.27;;;23.30;;
8964;SDS011;4517;49.020;12.066;2022-12-10T16:43:01;43.73;;;22.93;;